createdAt,value
2023-04-09T00:00:52.235Z,440.00
2023-04-09T00:01:52.324Z,400.00
2023-04-09T00:02:52.288Z,400.00
2023-04-09T00:03:52.305Z,400.00
2023-04-09T00:04:52.295Z,400.00
2023-04-09T00:05:52.197Z,410.00
2023-04-09T00:06:52.189Z,441.00
2023-04-09T00:07:52.186Z,471.00
2023-04-09T00:08:52.487Z,498.00
2023-04-09T00:09:52.173Z,500.00
2023-04-09T00:10:52.188Z,507.00
2023-04-09T00:11:52.154Z,500.00
2023-04-09T00:12:52.143Z,500.00
2023-04-09T00:13:52.138Z,500.00
2023-04-09T00:14:52.131Z,501.00
2023-04-09T00:15:52.130Z,502.00
2023-04-09T00:16:52.143Z,500.00
2023-04-09T00:17:52.127Z,502.00
2023-04-09T00:18:52.395Z,500.00
2023-04-09T00:19:52.098Z,500.00
2023-04-09T00:20:52.095Z,505.00
2023-04-09T00:21:52.076Z,501.00
2023-04-09T00:22:52.077Z,508.00
2023-04-09T00:23:52.062Z,500.00
2023-04-09T00:24:52.059Z,500.00
2023-04-09T00:25:52.053Z,501.00
2023-04-09T00:26:52.065Z,506.00
2023-04-09T00:27:52.044Z,503.00
2023-04-09T00:28:52.309Z,500.00
2023-04-09T00:29:52.027Z,505.00
2023-04-09T00:30:52.032Z,504.00
2023-04-09T00:31:52.036Z,502.00
2023-04-09T00:32:52.027Z,503.00
2023-04-09T00:33:52.038Z,503.00
2023-04-09T00:34:52.048Z,500.00
2023-04-09T00:35:52.072Z,503.00
2023-04-09T00:36:52.058Z,501.00
2023-04-09T00:37:52.069Z,504.00
2023-04-09T00:38:52.299Z,502.00
2023-04-09T00:39:52.091Z,505.00
2023-04-09T00:40:52.094Z,503.00
2023-04-09T00:41:52.101Z,503.00
2023-04-09T00:42:52.148Z,502.00
2023-04-09T00:43:52.126Z,504.00
2023-04-09T00:44:52.212Z,502.00
2023-04-09T00:45:52.245Z,503.00
2023-04-09T00:46:52.153Z,505.00
2023-04-09T00:47:52.162Z,500.00
2023-04-09T00:48:52.427Z,503.00
2023-04-09T00:49:52.184Z,501.00
2023-04-09T00:50:52.197Z,502.00
2023-04-09T00:51:52.196Z,506.00
2023-04-09T00:52:52.191Z,503.00
2023-04-09T00:53:52.196Z,501.00
2023-04-09T00:54:52.193Z,500.00
2023-04-09T00:55:52.202Z,500.00
2023-04-09T00:56:52.196Z,504.00
2023-04-09T00:57:52.200Z,504.00
2023-04-09T00:58:52.568Z,504.00
2023-04-09T00:59:52.196Z,506.00
2023-04-09T01:00:52.224Z,512.00
2023-04-09T01:01:52.220Z,503.00
2023-04-09T01:02:52.243Z,509.00
2023-04-09T01:03:52.241Z,509.00
2023-04-09T01:04:52.197Z,508.00
2023-04-09T01:05:52.192Z,505.00
2023-04-09T01:06:52.201Z,509.00
2023-04-09T01:07:52.189Z,502.00
2023-04-09T01:08:52.495Z,501.00
2023-04-09T01:09:52.190Z,504.00
2023-04-09T01:10:52.194Z,506.00
2023-04-09T01:11:52.207Z,506.00
2023-04-09T01:12:52.209Z,509.00
2023-04-09T01:13:52.213Z,506.00
2023-04-09T01:14:52.226Z,504.00
2023-04-09T01:15:52.229Z,508.00
2023-04-09T01:16:52.337Z,502.00
2023-04-09T01:17:52.221Z,504.00
2023-04-09T01:18:52.400Z,504.00
2023-04-09T01:19:52.205Z,508.00
2023-04-09T01:20:52.208Z,505.00
2023-04-09T01:21:52.221Z,507.00
2023-04-09T01:22:52.239Z,508.00
2023-04-09T01:23:52.219Z,504.00
2023-04-09T01:24:52.221Z,501.00
2023-04-09T01:25:52.224Z,505.00
2023-04-09T01:26:52.225Z,509.00
2023-04-09T01:27:52.229Z,507.00
2023-04-09T01:28:52.354Z,506.00
2023-04-09T01:29:52.223Z,510.00
2023-04-09T01:30:52.308Z,510.00
2023-04-09T01:31:52.241Z,507.00
2023-04-09T01:32:52.308Z,501.00
2023-04-09T01:33:52.263Z,515.00
2023-04-09T01:34:52.267Z,511.00
2023-04-09T01:35:52.299Z,511.00
2023-04-09T01:36:52.266Z,512.00
2023-04-09T01:37:52.268Z,509.00
2023-04-09T01:38:52.545Z,506.00
2023-04-09T01:39:52.295Z,510.00
2023-04-09T01:40:52.307Z,509.00
2023-04-09T01:41:52.307Z,513.00
2023-04-09T01:42:52.316Z,510.00
2023-04-09T01:43:52.323Z,510.00
2023-04-09T01:44:52.350Z,509.00
2023-04-09T01:45:52.362Z,510.00
2023-04-09T01:46:52.402Z,506.00
2023-04-09T01:47:52.372Z,510.00
2023-04-09T01:48:52.613Z,512.00
2023-04-09T01:49:52.378Z,508.00
2023-04-09T01:50:52.376Z,510.00
2023-04-09T01:51:52.380Z,508.00
2023-04-09T01:52:52.392Z,510.00
2023-04-09T01:53:52.395Z,505.00
2023-04-09T01:54:52.411Z,504.00
2023-04-09T01:55:52.414Z,505.00
2023-04-09T01:56:52.410Z,503.00
2023-04-09T01:57:52.431Z,507.00
2023-04-09T01:58:52.701Z,509.00
2023-04-09T01:59:52.440Z,513.00
2023-04-09T02:00:52.445Z,511.00
2023-04-09T02:01:52.516Z,509.00
2023-04-09T02:02:52.584Z,508.00
2023-04-09T02:03:52.584Z,511.00
2023-04-09T02:04:52.484Z,510.00
2023-04-09T02:05:52.483Z,512.00
2023-04-09T02:06:52.486Z,514.00
2023-04-09T02:07:52.498Z,512.00
2023-04-09T02:08:52.766Z,512.00
2023-04-09T02:09:52.514Z,513.00
2023-04-09T02:10:52.525Z,512.00
2023-04-09T02:11:52.531Z,514.00
2023-04-09T02:12:52.548Z,516.00
2023-04-09T02:13:52.549Z,511.00
2023-04-09T02:14:52.538Z,515.00
2023-04-09T02:15:52.620Z,511.00
2023-04-09T02:16:52.547Z,508.00
2023-04-09T02:17:52.600Z,513.00
2023-04-09T02:18:52.753Z,510.00
2023-04-09T02:19:52.551Z,511.00
2023-04-09T02:20:52.565Z,514.00
2023-04-09T02:21:52.598Z,519.00
2023-04-09T02:22:52.595Z,510.00
2023-04-09T02:23:52.597Z,515.00
2023-04-09T02:24:52.597Z,515.00
2023-04-09T02:25:52.593Z,517.00
2023-04-09T02:26:52.599Z,504.00
2023-04-09T02:27:52.604Z,513.00
2023-04-09T02:28:52.885Z,510.00
2023-04-09T02:29:52.630Z,511.00
2023-04-09T02:30:52.805Z,516.00
2023-04-09T02:31:52.624Z,517.00
2023-04-09T02:32:52.653Z,511.00
2023-04-09T02:33:52.639Z,512.00
2023-04-09T02:34:52.667Z,517.00
2023-04-09T02:35:52.669Z,515.00
2023-04-09T02:36:52.651Z,516.00
2023-04-09T02:37:52.649Z,516.00
2023-04-09T02:38:52.903Z,517.00
2023-04-09T02:39:52.664Z,518.00
2023-04-09T02:40:52.668Z,518.00
2023-04-09T02:41:52.671Z,511.00
2023-04-09T02:42:52.689Z,515.00
2023-04-09T02:43:52.712Z,514.00
2023-04-09T02:44:52.688Z,515.00
2023-04-09T02:45:52.689Z,514.00
2023-04-09T02:46:52.712Z,515.00
2023-04-09T02:47:52.755Z,519.00
2023-04-09T02:48:52.945Z,514.00
2023-04-09T02:49:52.735Z,514.00
2023-04-09T02:50:52.772Z,514.00
2023-04-09T02:51:52.739Z,517.00
2023-04-09T02:52:52.759Z,516.00
2023-04-09T02:53:52.751Z,514.00
2023-04-09T02:54:52.758Z,516.00
2023-04-09T02:55:52.776Z,523.00
2023-04-09T02:56:52.769Z,519.00
2023-04-09T02:57:52.794Z,515.00
2023-04-09T02:58:52.967Z,516.00
2023-04-09T02:59:52.819Z,517.00
2023-04-09T03:00:52.831Z,514.00
2023-04-09T03:01:52.995Z,519.00
2023-04-09T03:02:53.052Z,518.00
2023-04-09T03:03:53.010Z,514.00
2023-04-09T03:04:52.858Z,515.00
2023-04-09T03:05:52.866Z,520.00
2023-04-09T03:06:52.896Z,514.00
2023-04-09T03:07:52.866Z,519.00
2023-04-09T03:08:53.103Z,514.00
2023-04-09T03:09:52.888Z,514.00
2023-04-09T03:10:52.887Z,515.00
2023-04-09T03:11:52.886Z,519.00
2023-04-09T03:12:52.886Z,512.00
2023-04-09T03:13:52.899Z,515.00
2023-04-09T03:14:52.900Z,520.00
2023-04-09T03:15:52.927Z,517.00
2023-04-09T03:16:52.905Z,515.00
2023-04-09T03:17:52.993Z,514.00
2023-04-09T03:18:53.234Z,517.00
2023-04-09T03:19:52.911Z,518.00
2023-04-09T03:20:52.922Z,516.00
2023-04-09T03:21:52.924Z,517.00
2023-04-09T03:22:52.953Z,514.00
2023-04-09T03:23:52.930Z,518.00
2023-04-09T03:24:52.932Z,511.00
2023-04-09T03:25:52.943Z,514.00
2023-04-09T03:26:52.942Z,518.00
2023-04-09T03:27:52.949Z,514.00
2023-04-09T03:28:53.313Z,515.00
2023-04-09T03:29:52.956Z,517.00
2023-04-09T03:30:52.993Z,515.00
2023-04-09T03:31:52.973Z,516.00
2023-04-09T03:32:52.982Z,518.00
2023-04-09T03:33:52.980Z,518.00
2023-04-09T03:34:53.002Z,513.00
2023-04-09T03:35:53.166Z,518.00
2023-04-09T03:36:53.007Z,516.00
2023-04-09T03:37:53.013Z,514.00
2023-04-09T03:38:53.389Z,516.00
2023-04-09T03:39:53.025Z,519.00
2023-04-09T03:40:53.042Z,515.00
2023-04-09T03:41:53.037Z,516.00
2023-04-09T03:42:53.045Z,515.00
2023-04-09T03:43:53.056Z,519.00
2023-04-09T03:44:53.047Z,513.00
2023-04-09T03:45:53.053Z,514.00
2023-04-09T03:46:53.102Z,517.00
2023-04-09T03:47:53.077Z,516.00
2023-04-09T03:48:53.316Z,514.00
2023-04-09T03:49:53.066Z,516.00
2023-04-09T03:50:53.069Z,517.00
2023-04-09T03:51:53.077Z,518.00
2023-04-09T03:52:53.065Z,518.00
2023-04-09T03:53:53.072Z,515.00
2023-04-09T03:54:53.092Z,516.00
2023-04-09T03:55:53.072Z,519.00
2023-04-09T03:56:53.080Z,518.00
2023-04-09T03:57:53.100Z,514.00
2023-04-09T03:58:53.196Z,515.00
2023-04-09T03:59:53.081Z,519.00
2023-04-09T04:00:53.084Z,512.00
2023-04-09T04:01:53.156Z,522.00
2023-04-09T04:02:53.277Z,521.00
2023-04-09T04:03:53.193Z,517.00
2023-04-09T04:04:53.141Z,517.00
2023-04-09T04:05:53.111Z,517.00
2023-04-09T04:06:53.119Z,518.00
2023-04-09T04:07:53.121Z,518.00
2023-04-09T04:08:53.258Z,518.00
2023-04-09T04:09:53.127Z,522.00
2023-04-09T04:10:53.158Z,524.00
2023-04-09T04:11:53.151Z,517.00
2023-04-09T04:12:53.219Z,517.00
2023-04-09T04:13:53.156Z,518.00
2023-04-09T04:14:53.159Z,521.00
2023-04-09T04:15:53.201Z,516.00
2023-04-09T04:16:53.195Z,512.00
2023-04-09T04:17:53.210Z,515.00
2023-04-09T04:18:53.440Z,521.00
2023-04-09T04:19:53.208Z,517.00
2023-04-09T04:20:53.209Z,520.00
2023-04-09T04:21:53.195Z,517.00
2023-04-09T04:22:53.204Z,513.00
2023-04-09T04:23:53.225Z,514.00
2023-04-09T04:24:53.215Z,513.00
2023-04-09T04:25:53.205Z,515.00
2023-04-09T04:26:53.235Z,518.00
2023-04-09T04:27:53.212Z,517.00
2023-04-09T04:28:53.456Z,517.00
2023-04-09T04:29:53.216Z,518.00
2023-04-09T04:30:53.216Z,516.00
2023-04-09T04:31:53.273Z,515.00
2023-04-09T04:32:53.284Z,515.00
2023-04-09T04:33:53.235Z,520.00
2023-04-09T04:34:53.245Z,520.00
2023-04-09T04:35:53.267Z,512.00
2023-04-09T04:36:53.248Z,518.00
2023-04-09T04:37:53.260Z,513.00
2023-04-09T04:38:53.646Z,517.00
2023-04-09T04:39:53.268Z,518.00
2023-04-09T04:40:53.268Z,517.00
2023-04-09T04:41:53.269Z,517.00
2023-04-09T04:42:53.314Z,518.00
2023-04-09T04:43:53.283Z,512.00
2023-04-09T04:44:53.288Z,518.00
2023-04-09T04:45:53.684Z,515.00
2023-04-09T04:46:53.293Z,516.00
2023-04-09T04:47:53.346Z,516.00
2023-04-09T04:48:53.532Z,512.00
2023-04-09T04:49:53.321Z,518.00
2023-04-09T04:50:53.320Z,516.00
2023-04-09T04:51:53.324Z,515.00
2023-04-09T04:52:53.331Z,516.00
2023-04-09T04:53:53.337Z,518.00
2023-04-09T04:54:53.341Z,520.00
2023-04-09T04:55:53.335Z,515.00
2023-04-09T04:56:53.339Z,515.00
2023-04-09T04:57:53.336Z,521.00
2023-04-09T04:58:53.618Z,517.00
2023-04-09T04:59:53.345Z,514.00
2023-04-09T05:00:53.360Z,513.00
2023-04-09T05:01:53.408Z,516.00
2023-04-09T05:02:53.573Z,519.00
2023-04-09T05:03:53.439Z,513.00
2023-04-09T05:04:53.374Z,515.00
2023-04-09T05:05:53.381Z,515.00
2023-04-09T05:06:53.388Z,519.00
2023-04-09T05:07:53.397Z,515.00
2023-04-09T05:08:53.697Z,516.00
2023-04-09T05:09:53.421Z,516.00
2023-04-09T05:10:53.431Z,512.00
2023-04-09T05:11:53.437Z,520.00
2023-04-09T05:12:53.444Z,517.00
2023-04-09T05:13:53.445Z,516.00
2023-04-09T05:14:53.471Z,521.00
2023-04-09T05:15:53.450Z,516.00
2023-04-09T05:16:53.505Z,518.00
2023-04-09T05:17:53.476Z,519.00
2023-04-09T05:18:53.878Z,517.00
2023-04-09T05:19:53.464Z,514.00
2023-04-09T05:20:53.475Z,512.00
2023-04-09T05:21:53.480Z,519.00
2023-04-09T05:22:53.487Z,520.00
2023-04-09T05:23:53.560Z,519.00
2023-04-09T05:24:53.497Z,516.00
2023-04-09T05:25:53.502Z,515.00
2023-04-09T05:26:53.510Z,520.00
2023-04-09T05:27:53.499Z,511.00
2023-04-09T05:28:53.660Z,518.00
2023-04-09T05:29:53.511Z,513.00
2023-04-09T05:30:53.560Z,512.00
2023-04-09T05:31:53.515Z,514.00
2023-04-09T05:32:53.576Z,518.00
2023-04-09T05:33:53.540Z,516.00
2023-04-09T05:34:53.534Z,520.00
2023-04-09T05:35:53.547Z,517.00
2023-04-09T05:36:53.539Z,514.00
2023-04-09T05:37:53.541Z,516.00
2023-04-09T05:38:53.841Z,516.00
2023-04-09T05:39:53.567Z,514.00
2023-04-09T05:40:53.559Z,516.00
2023-04-09T05:41:53.553Z,516.00
2023-04-09T05:42:53.558Z,518.00
2023-04-09T05:43:53.861Z,514.00
2023-04-09T05:44:53.578Z,512.00
2023-04-09T05:45:53.608Z,514.00
2023-04-09T05:46:53.607Z,515.00
2023-04-09T05:47:53.619Z,511.00
2023-04-09T05:48:53.788Z,515.00
2023-04-09T05:49:53.585Z,520.00
2023-04-09T05:50:55.451Z,516.00
2023-04-09T05:51:53.585Z,517.00
2023-04-09T05:52:53.575Z,522.00
2023-04-09T05:53:53.723Z,516.00
2023-04-09T05:54:53.562Z,519.00
2023-04-09T05:55:53.559Z,520.00
2023-04-09T05:56:53.551Z,517.00
2023-04-09T05:57:53.553Z,511.00
2023-04-09T05:58:53.534Z,516.00
2023-04-09T05:59:53.530Z,522.00
2023-04-09T06:00:53.527Z,518.00
2023-04-09T06:01:53.552Z,514.00
2023-04-09T06:02:53.685Z,518.00
2023-04-09T06:03:57.065Z,523.00
2023-04-09T06:04:53.700Z,524.00
2023-04-09T06:05:53.635Z,524.00
2023-04-09T06:06:53.623Z,524.00
2023-04-09T06:07:53.629Z,526.00
2023-04-09T06:08:53.627Z,521.00
2023-04-09T06:09:53.631Z,522.00
2023-04-09T06:10:53.650Z,520.00
2023-04-09T06:11:53.636Z,523.00
2023-04-09T06:12:53.643Z,521.00
2023-04-09T06:13:53.747Z,523.00
2023-04-09T06:14:53.648Z,518.00
2023-04-09T06:15:53.671Z,522.00
2023-04-09T06:16:53.686Z,518.00
2023-04-09T06:17:53.671Z,524.00
2023-04-09T06:18:54.669Z,517.00
2023-04-09T06:19:53.637Z,516.00
2023-04-09T06:20:53.651Z,517.00
2023-04-09T06:21:53.654Z,521.00
2023-04-09T06:22:53.636Z,518.00
2023-04-09T06:23:54.105Z,521.00
2023-04-09T06:24:53.624Z,519.00
2023-04-09T06:25:53.621Z,522.00
2023-04-09T06:26:53.630Z,516.00
2023-04-09T06:27:53.625Z,520.00
2023-04-09T06:28:53.644Z,524.00
2023-04-09T06:29:53.617Z,519.00
2023-04-09T06:30:53.633Z,521.00
2023-04-09T06:31:53.686Z,519.00
2023-04-09T06:32:54.973Z,520.00
2023-04-09T06:33:53.879Z,523.00
2023-04-09T06:34:53.624Z,523.00
2023-04-09T06:35:53.643Z,523.00
2023-04-09T06:36:53.581Z,522.00
2023-04-09T06:37:53.574Z,519.00
2023-04-09T06:38:53.567Z,516.00
2023-04-09T06:40:01.076Z,518.00
2023-04-09T06:40:53.545Z,519.00
2023-04-09T06:41:53.547Z,520.00
2023-04-09T06:42:53.530Z,522.00
2023-04-09T06:43:53.737Z,519.00
2023-04-09T06:44:53.524Z,520.00
2023-04-09T06:45:53.514Z,519.00
2023-04-09T06:46:53.528Z,522.00
2023-04-09T06:47:53.572Z,518.00
2023-04-09T06:48:53.485Z,523.00
2023-04-09T06:49:53.485Z,517.00
2023-04-09T06:50:53.494Z,519.00
2023-04-09T06:51:53.481Z,519.00
2023-04-09T06:52:53.689Z,517.00
2023-04-09T06:53:53.656Z,520.00
2023-04-09T06:54:53.433Z,521.00
2023-04-09T06:55:54.452Z,516.00
2023-04-09T06:56:53.421Z,516.00
2023-04-09T06:57:53.419Z,517.00
2023-04-09T06:58:53.422Z,516.00
2023-04-09T06:59:53.408Z,519.00
2023-04-09T07:00:53.395Z,517.00
2023-04-09T07:01:54.657Z,518.00
2023-04-09T07:02:53.684Z,527.00
2023-04-09T07:03:53.686Z,521.00
2023-04-09T07:04:53.363Z,522.00
2023-04-09T07:05:53.356Z,518.00
2023-04-09T07:06:53.373Z,515.00
2023-04-09T07:07:53.360Z,516.00
2023-04-09T07:08:53.558Z,517.00
2023-04-09T07:09:53.323Z,515.00
2023-04-09T07:10:53.319Z,523.00
2023-04-09T07:11:53.313Z,520.00
2023-04-09T07:12:53.341Z,520.00
2023-04-09T07:13:53.629Z,516.00
2023-04-09T07:14:53.334Z,519.00
2023-04-09T07:15:53.339Z,517.00
2023-04-09T07:16:53.309Z,515.00
2023-04-09T07:17:53.487Z,518.00
2023-04-09T07:18:53.298Z,518.00
2023-04-09T07:19:53.303Z,519.00
2023-04-09T07:20:53.306Z,518.00
2023-04-09T07:21:53.311Z,515.00
2023-04-09T07:22:53.325Z,515.00
2023-04-09T07:23:53.614Z,521.00
2023-04-09T07:24:53.305Z,521.00
2023-04-09T07:25:53.315Z,523.00
2023-04-09T07:26:53.376Z,513.00
2023-04-09T07:27:53.346Z,520.00
2023-04-09T07:28:53.380Z,517.00
2023-04-09T07:29:53.398Z,521.00
2023-04-09T07:30:53.448Z,514.00
2023-04-09T07:31:53.512Z,516.00
2023-04-09T07:32:53.525Z,515.00
2023-04-09T07:33:53.570Z,517.00
2023-04-09T07:34:53.459Z,512.00
2023-04-09T07:35:53.884Z,516.00
2023-04-09T07:36:53.533Z,514.00
2023-04-09T07:37:53.554Z,520.00
2023-04-09T07:38:53.916Z,514.00
2023-04-09T07:39:53.641Z,510.00
2023-04-09T07:40:53.669Z,517.00
2023-04-09T07:41:53.686Z,519.00
2023-04-09T07:42:53.698Z,520.00
2023-04-09T07:43:53.775Z,513.00
2023-04-09T07:44:53.724Z,518.00
2023-04-09T07:45:53.741Z,515.00
2023-04-09T07:46:53.824Z,516.00
2023-04-09T07:47:53.790Z,518.00
2023-04-09T07:48:53.963Z,514.00
2023-04-09T07:49:53.819Z,519.00
2023-04-09T07:50:53.836Z,515.00
2023-04-09T07:51:53.844Z,517.00
2023-04-09T07:52:53.860Z,519.00
2023-04-09T07:53:53.880Z,516.00
2023-04-09T07:54:53.940Z,511.00
2023-04-09T07:55:53.935Z,513.00
2023-04-09T07:56:53.956Z,515.00
2023-04-09T07:57:53.973Z,513.00
2023-04-09T07:58:54.198Z,516.00
2023-04-09T07:59:54.036Z,511.00
2023-04-09T08:00:54.060Z,511.00
2023-04-09T08:01:54.175Z,510.00
2023-04-09T08:02:54.278Z,507.00
2023-04-09T08:03:54.232Z,515.00
2023-04-09T08:04:54.314Z,509.00
2023-04-09T08:05:54.252Z,513.00
2023-04-09T08:06:54.400Z,510.00
2023-04-09T08:07:54.355Z,515.00
2023-04-09T08:08:54.660Z,509.00
2023-04-09T08:09:54.452Z,513.00
2023-04-09T08:10:54.495Z,509.00
2023-04-09T08:11:54.524Z,507.00
2023-04-09T08:12:54.525Z,511.00
2023-04-09T08:13:54.567Z,505.00
2023-04-09T08:14:54.594Z,503.00
2023-04-09T08:15:54.629Z,508.00
2023-04-09T08:16:54.689Z,511.00
2023-04-09T08:17:54.760Z,507.00
2023-04-09T08:18:55.146Z,506.00
2023-04-09T08:19:54.779Z,512.00
2023-04-09T08:20:54.778Z,510.00
2023-04-09T08:21:54.820Z,514.00
2023-04-09T08:22:54.851Z,510.00
2023-04-09T08:23:54.899Z,508.00
2023-04-09T08:24:54.955Z,513.00
2023-04-09T08:25:55.011Z,511.00
2023-04-09T08:26:55.078Z,516.00
2023-04-09T08:27:55.114Z,511.00
2023-04-09T08:28:55.431Z,510.00
2023-04-09T08:29:55.252Z,508.00
2023-04-09T08:30:55.258Z,509.00
2023-04-09T08:31:55.458Z,513.00
2023-04-09T08:32:55.380Z,514.00
2023-04-09T08:33:55.417Z,518.00
2023-04-09T08:34:55.453Z,512.00
2023-04-09T08:35:55.483Z,515.00
2023-04-09T08:36:55.511Z,515.00
2023-04-09T08:37:55.563Z,507.00
2023-04-09T08:38:55.999Z,512.00
2023-04-09T08:39:55.677Z,509.00
2023-04-09T08:40:55.707Z,506.00
2023-04-09T08:41:55.741Z,506.00
2023-04-09T08:42:55.807Z,504.00
2023-04-09T08:43:58.273Z,505.00
2023-04-09T08:44:55.789Z,506.00
2023-04-09T08:45:55.829Z,507.00
2023-04-09T08:46:56.575Z,508.00
2023-04-09T08:47:55.835Z,506.00
2023-04-09T08:48:56.087Z,508.00
2023-04-09T08:49:55.761Z,508.00
2023-04-09T08:50:55.750Z,508.00
2023-04-09T08:51:55.749Z,509.00
2023-04-09T08:52:55.737Z,508.00
2023-04-09T08:53:55.731Z,508.00
2023-04-09T08:54:55.749Z,506.00
2023-04-09T08:55:55.722Z,507.00
2023-04-09T08:56:55.722Z,507.00
2023-04-09T08:57:55.700Z,507.00
2023-04-09T08:58:56.072Z,502.00
2023-04-09T08:59:55.687Z,507.00
2023-04-09T09:00:55.697Z,509.00
2023-04-09T09:01:55.710Z,509.00
2023-04-09T09:02:55.861Z,505.00
2023-04-09T09:03:55.756Z,511.00
2023-04-09T09:04:55.709Z,507.00
2023-04-09T09:05:55.637Z,507.00
2023-04-09T09:06:56.761Z,505.00
2023-04-09T09:07:55.628Z,506.00
2023-04-09T09:08:55.623Z,506.00
2023-04-09T09:09:55.708Z,500.00
2023-04-09T09:10:55.694Z,505.00
2023-04-09T09:11:55.754Z,505.00
2023-04-09T09:12:55.790Z,506.00
2023-04-09T09:13:55.841Z,504.00
2023-04-09T09:14:55.929Z,501.00
2023-04-09T09:15:55.958Z,505.00
2023-04-09T09:16:56.212Z,507.00
2023-04-09T09:17:56.215Z,511.00
2023-04-09T09:18:56.561Z,515.00
2023-04-09T09:19:56.166Z,511.00
2023-04-09T09:20:56.200Z,510.00
2023-04-09T09:21:56.264Z,511.00
2023-04-09T09:22:56.308Z,513.00
2023-04-09T09:23:56.346Z,515.00
2023-04-09T09:24:56.401Z,508.00
2023-04-09T09:25:56.461Z,511.00
2023-04-09T09:26:56.521Z,509.00
2023-04-09T09:27:56.575Z,508.00
2023-04-09T09:28:56.628Z,509.00
2023-04-09T09:29:56.684Z,505.00
2023-04-09T09:30:56.799Z,505.00
2023-04-09T09:31:56.807Z,503.00
2023-04-09T09:32:56.896Z,507.00
2023-04-09T09:33:56.937Z,506.00
2023-04-09T09:34:56.994Z,508.00
2023-04-09T09:35:57.053Z,508.00
2023-04-09T09:36:57.124Z,505.00
2023-04-09T09:37:57.186Z,511.00
2023-04-09T09:38:57.320Z,508.00
2023-04-09T09:39:57.289Z,508.00
2023-04-09T09:40:57.349Z,502.00
2023-04-09T09:41:57.409Z,509.00
2023-04-09T09:42:57.482Z,507.00
2023-04-09T09:43:57.575Z,511.00
2023-04-09T09:44:57.603Z,507.00
2023-04-09T09:45:57.706Z,508.00
2023-04-09T09:46:57.743Z,511.00
2023-04-09T09:47:57.822Z,512.00
2023-04-09T09:48:57.832Z,508.00
2023-04-09T09:49:57.927Z,502.00
2023-04-09T09:50:57.960Z,506.00
2023-04-09T09:51:58.031Z,508.00
2023-04-09T09:52:58.077Z,506.00
2023-04-09T09:53:58.203Z,510.00
2023-04-09T09:54:58.206Z,508.00
2023-04-09T09:55:58.265Z,509.00
2023-04-09T09:56:58.387Z,509.00
2023-04-09T09:57:58.419Z,507.00
2023-04-09T09:58:58.454Z,506.00
2023-04-09T09:59:58.511Z,502.00
2023-04-09T10:00:58.639Z,508.00
2023-04-09T10:01:58.850Z,506.00
2023-04-09T10:02:58.914Z,506.00
2023-04-09T10:03:58.788Z,507.00
2023-04-09T10:04:58.812Z,513.00
2023-04-09T10:05:58.886Z,515.00
2023-04-09T10:06:58.953Z,508.00
2023-04-09T10:07:58.989Z,508.00
2023-04-09T10:08:59.074Z,511.00
2023-04-09T10:09:59.121Z,516.00
2023-04-09T10:10:59.179Z,513.00
2023-04-09T10:11:59.237Z,510.00
2023-04-09T10:12:59.301Z,509.00
2023-04-09T10:13:59.385Z,508.00
2023-04-09T10:14:59.424Z,507.00
2023-04-09T10:15:59.576Z,505.00
2023-04-09T10:16:59.549Z,509.00
2023-04-09T10:17:59.659Z,518.00
2023-04-09T10:18:59.722Z,513.00
2023-04-09T10:19:59.725Z,519.00
2023-04-09T10:20:59.772Z,516.00
2023-04-09T10:21:59.841Z,514.00
2023-04-09T10:22:59.911Z,517.00
2023-04-09T10:24:00.005Z,520.00
2023-04-09T10:25:00.047Z,516.00
2023-04-09T10:26:00.126Z,515.00
2023-04-09T10:27:00.161Z,513.00
2023-04-09T10:28:00.241Z,518.00
2023-04-09T10:29:00.274Z,518.00
2023-04-09T10:30:00.378Z,517.00
2023-04-09T10:31:00.456Z,517.00
2023-04-09T10:32:00.473Z,521.00
2023-04-09T10:33:00.565Z,515.00
2023-04-09T10:34:00.588Z,520.00
2023-04-09T10:35:00.680Z,515.00
2023-04-09T10:36:00.765Z,521.00
2023-04-09T10:37:00.763Z,519.00
2023-04-09T10:38:00.813Z,516.00
2023-04-09T10:39:00.868Z,517.00
2023-04-09T10:40:00.934Z,519.00
2023-04-09T10:41:00.987Z,517.00
2023-04-09T10:42:01.040Z,514.00
2023-04-09T10:43:01.088Z,510.00
2023-04-09T10:44:01.142Z,520.00
2023-04-09T10:45:01.205Z,518.00
2023-04-09T10:46:01.249Z,511.00
2023-04-09T10:47:01.273Z,515.00
2023-04-09T10:48:01.363Z,517.00
2023-04-09T10:49:01.335Z,512.00
2023-04-09T10:50:01.378Z,515.00
2023-04-09T10:51:01.432Z,523.00
2023-04-09T10:52:01.436Z,521.00
2023-04-09T10:53:01.480Z,520.00
2023-04-09T10:54:01.507Z,522.00
2023-04-09T10:55:01.554Z,521.00
2023-04-09T10:56:01.595Z,517.00
2023-04-09T10:57:01.587Z,515.00
2023-04-09T10:58:01.592Z,520.00
2023-04-09T10:59:01.618Z,521.00
2023-04-09T11:00:01.630Z,522.00
2023-04-09T11:01:01.667Z,518.00
2023-04-09T11:02:01.743Z,523.00
2023-04-09T11:03:01.965Z,519.00
2023-04-09T11:04:01.747Z,518.00
2023-04-09T11:05:02.016Z,513.00
2023-04-09T11:06:01.971Z,522.00
2023-04-09T11:07:01.846Z,524.00
2023-04-09T11:08:01.824Z,521.00
2023-04-09T11:09:01.835Z,520.00
2023-04-09T11:10:01.809Z,513.00
2023-04-09T11:11:02.284Z,519.00
2023-04-09T11:12:01.826Z,516.00
2023-04-09T11:13:01.858Z,523.00
2023-04-09T11:14:01.859Z,516.00
2023-04-09T11:15:01.852Z,522.00
2023-04-09T11:16:01.972Z,521.00
2023-04-09T11:17:01.937Z,517.00
2023-04-09T11:18:01.945Z,516.00
2023-04-09T11:19:01.905Z,522.00
2023-04-09T11:20:01.926Z,525.00
2023-04-09T11:21:01.959Z,524.00
2023-04-09T11:22:01.959Z,522.00
2023-04-09T11:23:02.044Z,523.00
2023-04-09T11:24:01.988Z,520.00
2023-04-09T11:25:01.969Z,515.00
2023-04-09T11:26:01.976Z,512.00
2023-04-09T11:27:02.075Z,518.00
2023-04-09T11:28:01.997Z,520.00
2023-04-09T11:29:01.983Z,515.00
2023-04-09T11:30:01.999Z,506.00
2023-04-09T11:31:02.072Z,517.00
2023-04-09T11:32:02.056Z,515.00
2023-04-09T11:33:02.056Z,518.00
2023-04-09T11:34:01.992Z,520.00
2023-04-09T11:35:02.013Z,523.00
2023-04-09T11:36:02.056Z,527.00
2023-04-09T11:37:02.057Z,518.00
2023-04-09T11:38:02.022Z,520.00
2023-04-09T11:39:02.060Z,526.00
2023-04-09T11:40:02.046Z,524.00
2023-04-09T11:41:02.112Z,518.00
2023-04-09T11:42:02.073Z,523.00
2023-04-09T11:43:02.056Z,524.00
2023-04-09T11:44:02.057Z,521.00
2023-04-09T11:45:02.074Z,527.00
2023-04-09T11:46:02.076Z,527.00
2023-04-09T11:47:02.123Z,526.00
2023-04-09T11:48:02.116Z,527.00
2023-04-09T11:49:02.110Z,519.00
2023-04-09T11:50:02.112Z,525.00
2023-04-09T11:51:02.112Z,526.00
2023-04-09T11:52:02.148Z,523.00
2023-04-09T11:53:02.133Z,519.00
2023-04-09T11:54:02.125Z,521.00
2023-04-09T11:55:02.169Z,525.00
2023-04-09T11:56:02.160Z,527.00
2023-04-09T11:57:02.190Z,535.00
2023-04-09T11:58:02.156Z,529.00
2023-04-09T11:59:02.159Z,527.00
2023-04-09T12:00:04.608Z,530.00
2023-04-09T12:01:02.237Z,531.00
2023-04-09T12:02:02.281Z,531.00
2023-04-09T12:03:02.278Z,532.00
2023-04-09T12:04:02.327Z,531.00
2023-04-09T12:05:02.131Z,536.00
2023-04-09T12:06:02.101Z,536.00
2023-04-09T12:07:02.093Z,537.00
2023-04-09T12:08:02.097Z,532.00
2023-04-09T12:09:02.079Z,534.00
2023-04-09T12:10:02.078Z,529.00
2023-04-09T12:11:02.104Z,537.00
2023-04-09T12:12:02.076Z,534.00
2023-04-09T12:13:02.065Z,535.00
2023-04-09T12:14:02.064Z,534.00
2023-04-09T12:15:02.043Z,536.00
2023-04-09T12:16:02.068Z,532.00
2023-04-09T12:17:02.074Z,535.00
2023-04-09T12:18:02.140Z,533.00
2023-04-09T12:19:02.024Z,533.00
2023-04-09T12:20:02.028Z,532.00
2023-04-09T12:21:02.022Z,529.00
2023-04-09T12:22:01.990Z,532.00
2023-04-09T12:23:01.985Z,532.00
2023-04-09T12:24:01.974Z,533.00
2023-04-09T12:25:01.972Z,535.00
2023-04-09T12:26:01.974Z,536.00
2023-04-09T12:27:01.973Z,534.00
2023-04-09T12:28:01.945Z,535.00
2023-04-09T12:29:01.934Z,537.00